Time;durP1;ratioP1;P1;durP2;ratioP2;P2;SDS_P1;SDS_P2;PMS_P1;PMS_P2;Temp;Humidity;BMP_temperature;BMP_pressure;BME280_temperature;BME280_humidity;BME280_pressure;Samples;Min_cycle;Max_cycle;Signal;HPM_P1;HPM_P2
2022/07/14 00:01:45;;;;;;;4.60;1.70;;;;;;;;;;5009832;28;20041;-72
2022/07/14 00:04:11;;;;;;;3.13;1.90;;;;;;;;;;5012337;28;20398;-74
2022/07/14 00:06:38;;;;;;;5.90;1.80;;;;;;;;;;5012593;28;20033;-72
2022/07/14 00:09:04;;;;;;;3.63;1.50;;;;;;;;;;5011972;28;20038;-72
2022/07/14 00:11:30;;;;;;;3.67;1.70;;;;;;;;;;5012045;28;20394;-72
2022/07/14 00:13:58;;;;;;;3.97;1.60;;;;;;;;;;5011659;28;20386;-72
2022/07/14 00:16:25;;;;;;;2.55;1.65;;;;;;;;;;5011743;28;20398;-72
2022/07/14 00:18:51;;;;;;;4.82;1.60;;;;;;;;;;5012592;28;20032;-72
2022/07/14 00:21:18;;;;;;;4.97;1.65;;;;;;;;;;5011875;28;20565;-73
2022/07/14 00:23:45;;;;;;;2.28;1.48;;;;;;;;;;5011974;28;20021;-73
2022/07/14 00:26:12;;;;;;;1.95;1.70;;;;;;;;;;5011724;28;20026;-72
2022/07/14 00:28:39;;;;;;;5.18;1.98;;;;;;;;;;5009565;28;20080;-72
2022/07/14 00:31:10;;;;;;;1.85;1.67;;;;;;;;;;5011960;28;20502;-72
2022/07/14 00:33:38;;;;;;;2.92;1.70;;;;;;;;;;5011440;28;20491;-73
2022/07/14 00:36:04;;;;;;;3.92;1.38;;;;;;;;;;5011604;28;20022;-73
2022/07/14 00:38:31;;;;;;;2.75;1.60;;;;;;;;;;5010868;28;20030;-72
2022/07/14 00:40:57;;;;;;;2.10;1.75;;;;;;;;;;5011616;28;20013;-72
2022/07/14 00:43:23;;;;;;;2.78;1.60;;;;;;;;;;5011731;28;20029;-73
2022/07/14 00:45:50;;;;;;;1.70;1.60;;;;;;;;;;5011897;28;20034;-72
2022/07/14 00:48:19;;;;;;;3.22;1.92;;;;;;;;;;5007458;28;20022;-72
2022/07/14 00:50:46;;;;;;;2.17;1.67;;;;;;;;;;5011822;28;20026;-72
2022/07/14 00:53:13;;;;;;;4.88;1.60;;;;;;;;;;5011609;28;20030;-72
2022/07/14 00:55:41;;;;;;;3.03;1.70;;;;;;;;;;5009581;28;20034;-73
2022/07/14 00:58:07;;;;;;;2.90;1.67;;;;;;;;;;5011802;28;20022;-72
2022/07/14 01:00:34;;;;;;;3.97;2.00;;;;;;;;;;5010823;28;20034;-72
2022/07/14 01:03:00;;;;;;;2.72;1.65;;;;;;;;;;5011796;28;20014;-72
2022/07/14 01:05:27;;;;;;;6.22;1.75;;;;;;;;;;5011491;28;20079;-72
2022/07/14 01:07:53;;;;;;;2.67;2.15;;;;;;;;;;5011434;28;20033;-72
2022/07/14 01:10:20;;;;;;;2.55;1.42;;;;;;;;;;5011126;28;20025;-72
2022/07/14 01:12:47;;;;;;;3.22;1.77;;;;;;;;;;5012234;28;20091;-72
2022/07/14 01:15:14;;;;;;;6.05;1.85;;;;;;;;;;5011288;28;20032;-73
2022/07/14 01:17:40;;;;;;;4.45;1.90;;;;;;;;;;5011208;28;20018;-72
2022/07/14 01:20:07;;;;;;;6.43;1.85;;;;;;;;;;5011290;28;20394;-72
2022/07/14 01:22:35;;;;;;;2.08;1.42;;;;;;;;;;5011392;28;20394;-73
2022/07/14 01:25:02;;;;;;;1.80;1.58;;;;;;;;;;5011746;28;20033;-72
2022/07/14 01:27:28;;;;;;;5.20;2.00;;;;;;;;;;5011182;28;20040;-73
2022/07/14 01:29:54;;;;;;;3.55;1.95;;;;;;;;;;5011191;28;20423;-73
2022/07/14 01:32:20;;;;;;;2.28;1.80;;;;;;;;;;5011045;28;20522;-72
2022/07/14 01:34:47;;;;;;;2.05;1.63;;;;;;;;;;5011239;28;20033;-73
2022/07/14 01:37:13;;;;;;;3.03;1.90;;;;;;;;;;5011107;28;20028;-72
2022/07/14 01:39:39;;;;;;;5.68;1.90;;;;;;;;;;5011244;28;20030;-72
2022/07/14 01:42:06;;;;;;;2.20;1.55;;;;;;;;;;5011255;28;20071;-73
2022/07/14 01:44:32;;;;;;;2.63;1.60;;;;;;;;;;5011315;28;20037;-73
2022/07/14 01:46:58;;;;;;;4.15;2.00;;;;;;;;;;5011029;28;20022;-72
2022/07/14 01:49:25;;;;;;;2.53;1.90;;;;;;;;;;5013340;28;20053;-72
2022/07/14 01:51:51;;;;;;;4.45;2.10;;;;;;;;;;5015401;28;20026;-72
2022/07/14 01:54:17;;;;;;;3.33;1.50;;;;;;;;;;5014006;28;20517;-72
2022/07/14 01:56:44;;;;;;;2.63;2.10;;;;;;;;;;5014487;28;20440;-72
2022/07/14 01:59:10;;;;;;;2.33;1.90;;;;;;;;;;5014500;28;20025;-72
2022/07/14 02:01:40;;;;;;;7.15;1.83;;;;;;;;;;5014505;28;20036;-72
2022/07/14 02:04:08;;;;;;;2.22;1.70;;;;;;;;;;5014868;28;20026;-72
2022/07/14 02:06:34;;;;;;;2.42;1.95;;;;;;;;;;5014751;28;20454;-72
2022/07/14 02:09:01;;;;;;;3.97;1.77;;;;;;;;;;5013758;28;20042;-73
2022/07/14 02:14:12;;;;;;;3.83;1.90;;;;;;;;;;5014042;28;20414;-72
2022/07/14 02:16:38;;;;;;;6.22;2.17;;;;;;;;;;5014440;28;20014;-72
2022/07/14 02:19:05;;;;;;;2.60;1.98;;;;;;;;;;5014269;28;20037;-72
2022/07/14 02:21:31;;;;;;;3.10;1.90;;;;;;;;;;5014398;28;20026;-72
2022/07/14 02:23:58;;;;;;;2.65;1.88;;;;;;;;;;5014039;28;20024;-72
2022/07/14 02:26:24;;;;;;;2.13;1.90;;;;;;;;;;5013785;28;20088;-72
2022/07/14 02:28:50;;;;;;;3.30;1.88;;;;;;;;;;5014088;28;20026;-72
2022/07/14 02:31:17;;;;;;;2.50;1.70;;;;;;;;;;5013984;28;20030;-73
2022/07/14 02:33:43;;;;;;;2.10;1.63;;;;;;;;;;5012210;28;20025;-72
2022/07/14 02:36:09;;;;;;;7.15;1.98;;;;;;;;;;5013949;28;20079;-72
2022/07/14 02:38:36;;;;;;;2.67;1.75;;;;;;;;;;5013349;28;20022;-72
2022/07/14 02:41:04;;;;;;;3.58;1.63;;;;;;;;;;5013734;28;20048;-72
2022/07/14 02:43:31;;;;;;;4.00;2.20;;;;;;;;;;5013737;28;20398;-72
2022/07/14 02:45:58;;;;;;;2.40;1.90;;;;;;;;;;5014520;28;20021;-72
2022/07/14 02:48:24;;;;;;;2.40;2.00;;;;;;;;;;5013495;28;20034;-72
2022/07/14 02:50:51;;;;;;;3.08;1.80;;;;;;;;;;5013839;28;20033;-72
2022/07/14 02:53:17;;;;;;;2.10;1.73;;;;;;;;;;5012816;28;20044;-72
2022/07/14 02:55:44;;;;;;;7.95;2.10;;;;;;;;;;5013041;28;20030;-72
2022/07/14 02:58:10;;;;;;;3.03;1.80;;;;;;;;;;5013513;28;20026;-72
2022/07/14 03:00:38;;;;;;;3.70;1.92;;;;;;;;;;5012945;28;20034;-72
2022/07/14 03:03:06;;;;;;;1.90;1.75;;;;;;;;;;5013294;28;20033;-72
2022/07/14 03:05:33;;;;;;;2.92;2.00;;;;;;;;;;5013173;28;20022;-72
2022/07/14 03:08:01;;;;;;;3.75;1.80;;;;;;;;;;5012967;28;20046;-72
2022/07/14 03:10:41;;;;;;;2.10;1.90;;;;;;;;;;5086469;27;20456;-72
2022/07/14 03:13:18;;;;;;;4.10;2.15;;;;;;;;;;5088450;28;20427;-73
2022/07/14 03:15:46;;;;;;;2.58;2.00;;;;;;;;;;5068971;28;20033;-73
2022/07/14 03:18:25;;;;;;;2.30;1.92;;;;;;;;;;5049410;28;20832;-73
2022/07/14 03:21:10;;;;;;;2.22;2.03;;;;;;;;;;5065382;28;20394;-73
2022/07/14 03:23:39;;;;;;;4.70;2.05;;;;;;;;;;5057155;28;20021;-73
2022/07/14 03:26:15;;;;;;;2.97;2.30;;;;;;;;;;5105941;27;1344215;-73
2022/07/14 03:28:44;;;;;;;3.17;2.05;;;;;;;;;;5129725;28;20032;-73
2022/07/14 03:31:12;;;;;;;3.88;1.95;;;;;;;;;;5129932;27;20015;-73
2022/07/14 03:33:52;;;;;;;2.42;2.08;;;;;;;;;;5109811;27;20815;-73
2022/07/14 03:36:29;;;;;;;4.47;1.77;;;;;;;;;;5089419;27;20397;-73
2022/07/14 03:38:58;;;;;;;2.15;1.80;;;;;;;;;;5074636;28;20028;-73
2022/07/14 03:41:26;;;;;;;4.90;2.20;;;;;;;;;;5070455;28;20033;-73
2022/07/14 03:44:03;;;;;;;5.07;2.20;;;;;;;;;;5065982;28;20139;-73
2022/07/14 03:46:32;;;;;;;2.20;2.00;;;;;;;;;;5066413;28;20035;-73
2022/07/14 03:49:08;;;;;;;5.03;2.35;;;;;;;;;;5109185;27;20174;-73
2022/07/14 03:51:41;;;;;;;2.13;1.92;;;;;;;;;;5088492;28;20033;-73
2022/07/14 03:54:10;;;;;;;6.07;2.38;;;;;;;;;;5088719;28;20026;-73
2022/07/14 03:56:49;;;;;;;4.38;2.28;;;;;;;;;;5106330;27;20392;-72
2022/07/14 03:59:18;;;;;;;2.47;2.10;;;;;;;;;;5107974;28;20028;-73
2022/07/14 04:01:47;;;;;;;2.88;2.00;;;;;;;;;;5106194;28;20028;-72
2022/07/14 04:04:16;;;;;;;3.45;1.92;;;;;;;;;;5107152;28;20042;-73
2022/07/14 04:06:45;;;;;;;2.65;2.45;;;;;;;;;;5109485;28;20028;-73
2022/07/14 04:09:13;;;;;;;4.65;2.25;;;;;;;;;;5106406;28;20042;-73
2022/07/14 04:11:42;;;;;;;5.80;2.38;;;;;;;;;;5106147;28;20032;-73
2022/07/14 04:14:11;;;;;;;2.78;2.42;;;;;;;;;;5106067;28;20023;-73
2022/07/14 04:16:40;;;;;;;5.13;2.13;;;;;;;;;;5105998;28;20029;-73
2022/07/14 04:19:08;;;;;;;5.13;2.33;;;;;;;;;;5108094;28;20042;-73
2022/07/14 04:21:37;;;;;;;6.50;2.28;;;;;;;;;;5108362;28;20036;-73
2022/07/14 04:24:06;;;;;;;2.92;2.13;;;;;;;;;;5105860;28;20031;-73
2022/07/14 04:26:37;;;;;;;4.80;2.10;;;;;;;;;;5105709;28;20028;-73
2022/07/14 04:29:05;;;;;;;4.07;2.05;;;;;;;;;;5106081;28;20026;-73
2022/07/14 04:31:34;;;;;;;3.47;2.20;;;;;;;;;;5089950;28;20038;-73
2022/07/14 04:34:04;;;;;;;4.65;2.05;;;;;;;;;;5108765;28;20497;-73
2022/07/14 04:36:41;;;;;;;4.97;2.30;;;;;;;;;;5051743;28;20990;-73
2022/07/14 04:39:10;;;;;;;5.00;2.30;;;;;;;;;;5049975;28;20059;-72
2022/07/14 04:41:38;;;;;;;4.95;2.25;;;;;;;;;;5049918;28;20025;-73
2022/07/14 04:44:15;;;;;;;7.03;2.50;;;;;;;;;;5065939;28;20130;-73
2022/07/14 04:46:44;;;;;;;11.52;2.30;;;;;;;;;;5061871;28;20032;-73
2022/07/14 04:52:18;;;;;;;5.38;2.38;;;;;;;;;;5108822;27;20392;-73
2022/07/14 04:54:47;;;;;;;4.30;2.30;;;;;;;;;;5089459;28;20024;-73
2022/07/14 04:57:16;;;;;;;4.45;2.72;;;;;;;;;;5088840;28;20028;-73
2022/07/14 04:59:45;;;;;;;2.53;2.25;;;;;;;;;;5088753;28;20020;-73
2022/07/14 05:02:14;;;;;;;3.25;2.63;;;;;;;;;;5088234;28;20028;-73
2022/07/14 05:04:54;;;;;;;9.93;2.40;;;;;;;;;;5066255;28;20426;-73
2022/07/14 05:07:31;;;;;;;5.75;2.63;;;;;;;;;;5107028;27;20400;-73
2022/07/14 05:10:00;;;;;;;4.28;2.30;;;;;;;;;;5089536;28;20484;-72
2022/07/14 05:12:29;;;;;;;2.90;2.42;;;;;;;;;;5104090;28;20051;-72
2022/07/14 05:14:58;;;;;;;3.97;2.58;;;;;;;;;;5088651;28;20024;-73
2022/07/14 05:17:26;;;;;;;4.25;2.53;;;;;;;;;;5088601;28;20020;-73
2022/07/14 05:19:55;;;;;;;6.75;2.63;;;;;;;;;;5103632;28;20043;-73
2022/07/14 05:22:25;;;;;;;6.35;2.47;;;;;;;;;;5088642;28;20028;-73
2022/07/14 05:25:05;;;;;;;2.95;2.50;;;;;;;;;;5069318;28;20429;-73
2022/07/14 05:27:34;;;;;;;3.90;2.40;;;;;;;;;;5067666;28;20051;-73
2022/07/14 05:30:13;;;;;;;6.38;2.83;;;;;;;;;;5106416;27;20422;-72
2022/07/14 05:32:41;;;;;;;7.03;2.63;;;;;;;;;;5106398;28;20016;-73
2022/07/14 05:35:10;;;;;;;3.22;2.33;;;;;;;;;;5104973;28;20036;-73
2022/07/14 05:37:39;;;;;;;5.10;2.60;;;;;;;;;;5106222;28;20032;-73
2022/07/14 05:40:15;;;;;;;4.95;2.45;;;;;;;;;;5108924;27;20158;-73
2022/07/14 05:42:44;;;;;;;3.92;2.47;;;;;;;;;;5091810;28;20025;-73
2022/07/14 05:45:23;;;;;;;3.00;2.28;;;;;;;;;;5106084;27;20418;-73
2022/07/14 05:47:51;;;;;;;8.43;2.60;;;;;;;;;;5106321;28;20023;-73
2022/07/14 05:50:21;;;;;;;4.03;2.40;;;;;;;;;;5106461;28;20034;-73
2022/07/14 05:52:58;;;;;;;3.45;2.53;;;;;;;;;;5106421;27;20391;-73
2022/07/14 05:55:27;;;;;;;6.82;2.40;;;;;;;;;;5107840;28;20051;-73
2022/07/14 05:57:56;;;;;;;4.47;2.60;;;;;;;;;;5109726;28;20036;-73
2022/07/14 06:00:34;;;;;;;5.22;3.03;;;;;;;;;;5050128;28;20997;-73
2022/07/14 06:03:03;;;;;;;4.40;2.90;;;;;;;;;;5050208;28;20029;-73
2022/07/14 06:05:34;;;;;;;3.25;2.80;;;;;;;;;;5050019;28;20034;-73
2022/07/14 06:08:13;;;;;;;7.10;2.72;;;;;;;;;;5066136;28;20476;-73
2022/07/14 06:10:42;;;;;;;4.82;2.92;;;;;;;;;;5061993;28;20047;-73
2022/07/14 06:13:11;;;;;;;4.90;2.60;;;;;;;;;;5051141;28;20029;-73
2022/07/14 06:15:40;;;;;;;2.95;2.50;;;;;;;;;;5050843;28;20037;-73
2022/07/14 06:18:10;;;;;;;5.28;2.70;;;;;;;;;;5050279;28;20021;-73
2022/07/14 06:20:41;;;;;;;3.40;2.53;;;;;;;;;;5050407;28;20029;-73
2022/07/14 06:23:21;;;;;;;3.10;2.80;;;;;;;;;;5086311;28;20389;-73
2022/07/14 06:25:50;;;;;;;5.78;2.80;;;;;;;;;;5081757;28;20029;-73
2022/07/14 06:28:18;;;;;;;8.23;2.45;;;;;;;;;;5070249;28;20043;-73
2022/07/14 06:30:47;;;;;;;6.18;2.58;;;;;;;;;;5087274;28;20025;-73
2022/07/14 06:33:16;;;;;;;4.95;2.55;;;;;;;;;;5068712;28;20036;-73
2022/07/14 06:35:44;;;;;;;5.30;2.90;;;;;;;;;;5069894;28;20024;-73
2022/07/14 06:38:21;;;;;;;6.30;3.00;;;;;;;;;;5106474;27;20129;-73
2022/07/14 06:40:50;;;;;;;2.97;2.67;;;;;;;;;;5106444;28;20034;-73
2022/07/14 06:43:26;;;;;;;6.07;2.55;;;;;;;;;;5086938;27;20139;-73
2022/07/14 06:45:55;;;;;;;2.63;2.42;;;;;;;;;;5069283;28;20527;-73
2022/07/14 06:48:32;;;;;;;5.60;2.70;;;;;;;;;;5050545;28;20135;-73
2022/07/14 06:51:04;;;;;;;7.32;2.45;;;;;;;;;;5049422;28;20409;-73
2022/07/14 06:53:40;;;;;;;4.07;2.83;;;;;;;;;;5065815;28;20395;-73
2022/07/14 06:56:20;;;;;;;7.72;2.80;;;;;;;;;;5106435;27;20388;-73
2022/07/14 06:58:57;;;;;;;4.05;2.70;;;;;;;;;;5065775;28;20425;-73
2022/07/14 07:01:26;;;;;;;3.30;2.90;;;;;;;;;;5067511;28;20027;-73
2022/07/14 07:04:02;;;;;;;3.92;2.83;;;;;;;;;;5109793;27;20150;-73
2022/07/14 07:06:45;;;;;;;3.17;2.60;;;;;;;;;;5051747;28;20189;-73
2022/07/14 07:09:22;;;;;;;3.10;2.80;;;;;;;;;;5066127;28;20818;-72
2022/07/14 07:12:01;;;;;;;3.92;2.80;;;;;;;;;;5106500;27;20384;-73
2022/07/14 07:14:29;;;;;;;3.28;2.80;;;;;;;;;;5107354;28;20027;-73
2022/07/14 07:16:58;;;;;;;4.90;2.67;;;;;;;;;;5106205;28;20028;-73
2022/07/14 07:19:27;;;;;;;8.55;2.90;;;;;;;;;;5107446;28;20420;-73
2022/07/14 07:21:57;;;;;;;4.25;3.03;;;;;;;;;;5109065;28;20476;-73
2022/07/14 07:24:36;;;;;;;4.30;3.00;;;;;;;;;;5050302;28;20443;-72
2022/07/14 07:27:06;;;;;;;5.45;3.00;;;;;;;;;;5049757;28;20021;-73
2022/07/14 07:29:36;;;;;;;4.78;2.80;;;;;;;;;;5050052;28;20021;-73
2022/07/14 07:32:13;;;;;;;5.63;2.50;;;;;;;;;;5106469;27;20973;-73
2022/07/14 07:34:41;;;;;;;4.32;2.70;;;;;;;;;;5102066;28;20350;-73
2022/07/14 07:37:18;;;;;;;4.35;2.42;;;;;;;;;;5108753;27;20133;-73
2022/07/14 07:40:01;;;;;;;6.07;2.65;;;;;;;;;;5109865;27;20414;-73
2022/07/14 07:42:38;;;;;;;6.55;2.78;;;;;;;;;;5112481;27;20707;-73
2022/07/14 07:45:08;;;;;;;2.83;2.63;;;;;;;;;;5110564;28;20028;-73
2022/07/14 07:47:48;;;;;;;4.00;2.50;;;;;;;;;;5086036;27;20423;-73
2022/07/14 07:50:17;;;;;;;4.27;2.40;;;;;;;;;;5080486;28;20033;-73
2022/07/14 07:52:55;;;;;;;5.47;3.08;;;;;;;;;;5065884;28;20811;-73
2022/07/14 07:55:24;;;;;;;4.30;2.63;;;;;;;;;;5067552;28;20035;-73
2022/07/14 07:57:53;;;;;;;7.85;2.72;;;;;;;;;;5067694;28;20405;-73
2022/07/14 08:00:22;;;;;;;9.32;2.88;;;;;;;;;;5065732;28;20028;-73
2022/07/14 08:02:52;;;;;;;3.85;2.60;;;;;;;;;;5065864;28;20029;-73
2022/07/14 08:05:30;;;;;;;4.20;2.70;;;;;;;;;;5106659;27;20430;-73
2022/07/14 08:08:00;;;;;;;13.75;2.35;;;;;;;;;;5102395;28;20012;-73
2022/07/14 08:10:38;;;;;;;2.60;2.20;;;;;;;;;;5106425;27;20426;-73
2022/07/14 08:13:08;;;;;;;8.57;3.00;;;;;;;;;;5109302;28;20031;-73
2022/07/14 08:15:37;;;;;;;3.92;2.65;;;;;;;;;;5108361;28;20040;-73
2022/07/14 08:18:15;;;;;;;6.13;2.85;;;;;;;;;;5066081;28;20383;-73
2022/07/14 08:20:52;;;;;;;3.75;2.50;;;;;;;;;;5106582;27;20396;-73
2022/07/14 08:23:29;;;;;;;6.20;2.70;;;;;;;;;;5106255;27;20154;-73
2022/07/14 08:25:58;;;;;;;3.47;2.70;;;;;;;;;;5106023;28;20028;-73
2022/07/14 08:28:37;;;;;;;3.28;2.42;;;;;;;;;;5106582;27;20418;-73
2022/07/14 08:31:16;;;;;;;3.83;2.83;;;;;;;;;;5068158;28;20383;-73
2022/07/14 08:33:45;;;;;;;7.80;2.67;;;;;;;;;;5051542;28;20037;-73
2022/07/14 08:36:14;;;;;;;6.82;2.53;;;;;;;;;;5050250;28;20030;-73
2022/07/14 08:38:43;;;;;;;6.75;2.67;;;;;;;;;;5050032;28;20389;-73
2022/07/14 08:41:20;;;;;;;2.65;2.42;;;;;;;;;;5106121;27;20993;-73
2022/07/14 08:44:00;;;;;;;4.93;2.70;;;;;;;;;;5106619;27;20422;-73
2022/07/14 08:46:39;;;;;;;6.13;2.85;;;;;;;;;;5066171;28;20386;-73
2022/07/14 08:49:09;;;;;;;4.95;2.35;;;;;;;;;;5068760;28;20025;-73
2022/07/14 08:51:46;;;;;;;3.75;2.55;;;;;;;;;;5109766;27;20565;-72
2022/07/14 08:54:14;;;;;;;5.25;2.38;;;;;;;;;;5105942;28;20032;-72
2022/07/14 08:56:43;;;;;;;4.38;2.15;;;;;;;;;;5104947;28;20518;-73
2022/07/14 08:59:12;;;;;;;9.85;2.53;;;;;;;;;;5106200;28;20030;-73
2022/07/14 09:01:50;;;;;;;5.10;2.38;;;;;;;;;;5106275;27;20121;-73
2022/07/14 09:04:29;;;;;;;6.07;2.70;;;;;;;;;;5067011;28;20400;-73
2022/07/14 09:06:58;;;;;;;5.82;2.47;;;;;;;;;;5049225;28;20478;-73
2022/07/14 09:09:27;;;;;;;6.85;2.28;;;;;;;;;;5069333;28;20042;-73
2022/07/14 09:12:09;;;;;;;5.75;2.40;;;;;;;;;;5086022;28;20410;-73
2022/07/14 09:17:26;;;;;;;7.72;2.03;;;;;;;;;;5070392;28;20204;-73
2022/07/14 09:20:09;;;;;;;5.00;2.00;;;;;;;;;;5068774;28;20023;-73
2022/07/14 09:22:49;;;;;;;2.72;2.00;;;;;;;;;;5106384;27;20385;-72
2022/07/14 09:25:26;;;;;;;3.53;2.10;;;;;;;;;;5067490;28;20399;-72
2022/07/14 09:28:09;;;;;;;7.00;2.33;;;;;;;;;;5069193;28;20374;-71
2022/07/14 09:30:38;;;;;;;5.03;2.10;;;;;;;;;;5050259;28;20502;-71
2022/07/14 09:33:06;;;;;;;5.60;2.20;;;;;;;;;;5049880;28;20033;-71
2022/07/14 09:35:36;;;;;;;7.30;2.30;;;;;;;;;;5049935;28;20372;-71
2022/07/14 09:38:17;;;;;;;2.22;2.03;;;;;;;;;;5106091;27;20827;-71
2022/07/14 09:41:08;;;;;;;4.22;2.20;;;;;;;;;;5086462;27;20391;-71
2022/07/14 09:44:04;;;;;;;6.65;1.98;;;;;;;;;;5106476;27;20436;-71
2022/07/14 09:46:44;;;;;;;5.97;2.20;;;;;;;;;;5106422;27;20774;-71
2022/07/14 09:49:23;;;;;;;8.40;2.80;;;;;;;;;;5107941;27;20777;-71
2022/07/14 09:51:54;;;;;;;;;;;;;;;;;;5090817;28;20058;-71
2022/07/14 09:54:39;;;;;;;3.55;2.00;;;;;;;;;;5050582;28;20388;-71
2022/07/14 09:57:08;;;;;;;4.55;2.38;;;;;;;;;;5050076;28;20414;-71
2022/07/14 09:59:43;;;;;;;6.22;2.10;;;;;;;;;;5050278;28;20017;-71
2022/07/14 10:02:24;;;;;;;3.90;2.20;;;;;;;;;;5050023;28;20401;-71
2022/07/14 10:05:02;;;;;;;6.18;2.13;;;;;;;;;;5085929;28;20431;-72
2022/07/14 10:07:35;;;;;;;6.32;2.28;;;;;;;;;;5086778;28;20029;-71
2022/07/14 10:10:13;;;;;;;2.78;2.22;;;;;;;;;;5108928;27;20935;-71
2022/07/14 10:12:50;;;;;;;3.70;2.40;;;;;;;;;;5109687;27;20380;-71
2022/07/14 10:15:19;;;;;;;2.47;2.28;;;;;;;;;;5092083;28;20028;-71
2022/07/14 10:17:47;;;;;;;4.15;2.30;;;;;;;;;;5090567;28;20058;-71
2022/07/14 10:20:24;;;;;;;2.55;2.30;;;;;;;;;;5065910;28;20134;-71
2022/07/14 10:22:55;;;;;;;4.60;2.63;;;;;;;;;;5061571;28;20034;-71
2022/07/14 10:25:24;;;;;;;6.63;2.42;;;;;;;;;;5049287;28;20033;-71
2022/07/14 10:27:53;;;;;;;2.83;2.55;;;;;;;;;;5052522;28;20501;-71
2022/07/14 10:30:30;;;;;;;4.28;3.03;;;;;;;;;;5050253;28;20021;-71
2022/07/14 10:33:12;;;;;;;5.03;2.75;;;;;;;;;;5095332;27;1342736;-71
2022/07/14 10:35:51;;;;;;;3.92;2.70;;;;;;;;;;5129479;28;20023;-71
2022/07/14 10:38:25;;;;;;;5.07;2.85;;;;;;;;;;5129461;28;20418;-71
2022/07/14 10:41:05;;;;;;;2.88;2.60;;;;;;;;;;5106846;27;20380;-71
2022/07/14 10:43:56;;;;;;;4.30;3.00;;;;;;;;;;5066281;28;20396;-71
2022/07/14 10:46:36;;;;;;;4.50;2.55;;;;;;;;;;5066460;28;20391;-71
2022/07/14 10:49:14;;;;;;;4.82;3.00;;;;;;;;;;5108701;27;20388;-71
2022/07/14 10:51:53;;;;;;;5.30;2.90;;;;;;;;;;5069024;28;20911;-71
2022/07/14 10:54:32;;;;;;;6.15;3.20;;;;;;;;;;5051517;28;20033;-71
2022/07/14 10:57:09;;;;;;;6.93;3.28;;;;;;;;;;5106458;27;20831;-71
2022/07/14 10:59:47;;;;;;;3.65;3.33;;;;;;;;;;5065913;28;20173;-71
2022/07/14 11:02:28;;;;;;;5.38;2.75;;;;;;;;;;5106169;27;20396;-72
2022/07/14 11:05:08;;;;;;;4.53;3.00;;;;;;;;;;5106006;27;20388;-71
2022/07/14 11:07:50;;;;;;;4.35;2.80;;;;;;;;;;5065739;28;20832;-71
2022/07/14 11:10:27;;;;;;;4.55;2.80;;;;;;;;;;5067216;28;20448;-70
2022/07/14 11:13:04;;;;;;;4.05;2.85;;;;;;;;;;5049222;28;20037;-71
2022/07/14 11:15:42;;;;;;;10.65;3.10;;;;;;;;;;5091984;27;20386;-71
2022/07/14 11:18:21;;;;;;;7.00;3.05;;;;;;;;;;5106554;27;20392;-71
2022/07/14 11:21:06;;;;;;;3.30;3.10;;;;;;;;;;5085901;27;20421;-71
2022/07/14 11:23:43;;;;;;;3.78;2.90;;;;;;;;;;5106416;27;20819;-71
2022/07/14 11:26:41;;;;;;;5.70;3.00;;;;;;;;;;5106436;27;20433;-71
2022/07/14 11:29:11;;;;;;;3.03;2.80;;;;;;;;;;5106462;28;20028;-71
2022/07/14 11:31:50;;;;;;;7.78;3.40;;;;;;;;;;5106485;27;20420;-71
2022/07/14 11:37:11;;;;;;;5.07;2.70;;;;;;;;;;5106129;28;20031;-71
2022/07/14 11:39:44;;;;;;;6.13;2.50;;;;;;;;;;5108796;28;20035;-72
2022/07/14 11:42:13;;;;;;;3.33;2.88;;;;;;;;;;5106245;28;20040;-71
2022/07/14 11:44:42;;;;;;;2.83;2.63;;;;;;;;;;5106514;28;20034;-71
2022/07/14 11:47:15;;;;;;;5.43;3.10;;;;;;;;;;5107687;28;20026;-72
2022/07/14 11:49:54;;;;;;;3.03;2.70;;;;;;;;;;5065823;28;20392;-71
2022/07/14 11:52:26;;;;;;;2.97;2.60;;;;;;;;;;5067987;28;20039;-71
2022/07/14 11:54:55;;;;;;;5.30;3.15;;;;;;;;;;5068091;28;20420;-71
2022/07/14 11:57:33;;;;;;;3.05;2.75;;;;;;;;;;5069654;27;20429;-71
2022/07/14 12:00:04;;;;;;;6.68;2.38;;;;;;;;;;5065927;28;20027;-71
2022/07/14 12:02:50;;;;;;;3.70;2.40;;;;;;;;;;5106034;27;20392;-71
2022/07/14 12:05:28;;;;;;;4.57;2.50;;;;;;;;;;5106543;27;20421;-71
2022/07/14 12:08:05;;;;;;;3.95;2.45;;;;;;;;;;5066330;28;20387;-71
2022/07/14 12:10:36;;;;;;;3.53;2.28;;;;;;;;;;5066630;28;20032;-71
2022/07/14 12:13:14;;;;;;;3.38;2.58;;;;;;;;;;5068331;28;20383;-71
2022/07/14 12:15:43;;;;;;;4.75;2.58;;;;;;;;;;5049533;28;20033;-71
2022/07/14 12:18:12;;;;;;;2.55;2.20;;;;;;;;;;5049798;28;20404;-71
2022/07/14 12:20:50;;;;;;;4.82;2.42;;;;;;;;;;5106307;27;20396;-71
2022/07/14 12:23:19;;;;;;;2.75;2.20;;;;;;;;;;5106394;28;20488;-71
2022/07/14 12:25:48;;;;;;;5.50;2.40;;;;;;;;;;5107682;28;20046;-71
2022/07/14 12:28:18;;;;;;;4.03;1.85;;;;;;;;;;5108647;28;20028;-71
2022/07/14 12:30:47;;;;;;;4.90;2.25;;;;;;;;;;5109644;28;20030;-71
2022/07/14 12:33:18;;;;;;;3.08;2.10;;;;;;;;;;5105976;28;20032;-71
2022/07/14 12:35:57;;;;;;;3.55;2.50;;;;;;;;;;5106609;27;20389;-71
2022/07/14 12:38:27;;;;;;;3.75;2.00;;;;;;;;;;5105767;28;20028;-71
2022/07/14 12:41:05;;;;;;;2.70;2.20;;;;;;;;;;5106668;27;20830;-71
2022/07/14 12:43:44;;;;;;;2.47;2.15;;;;;;;;;;5106427;27;20389;-71
2022/07/14 12:46:25;;;;;;;2.58;2.00;;;;;;;;;;5108040;27;20384;-71
2022/07/14 12:49:03;;;;;;;4.15;1.95;;;;;;;;;;5069349;28;20414;-71
2022/07/14 12:51:42;;;;;;;2.47;2.25;;;;;;;;;;5092378;27;20427;-71
2022/07/14 12:54:15;;;;;;;2.20;2.00;;;;;;;;;;5090259;28;20481;-71
2022/07/14 12:56:44;;;;;;;9.93;2.17;;;;;;;;;;5090150;28;20024;-71
2022/07/14 12:59:14;;;;;;;5.88;2.08;;;;;;;;;;5090039;28;20032;-72
2022/07/14 13:01:59;;;;;;;1.88;1.65;;;;;;;;;;5106143;27;20394;-71
2022/07/14 13:04:43;;;;;;;2.50;1.80;;;;;;;;;;5107675;28;20030;-71
2022/07/14 13:07:30;;;;;;;5.50;1.73;;;;;;;;;;5108609;27;20985;-71
2022/07/14 13:10:09;;;;;;;3.00;1.98;;;;;;;;;;5089406;28;20033;-71
2022/07/14 13:12:48;;;;;;;4.30;1.90;;;;;;;;;;5109718;27;20123;-71
2022/07/14 13:15:17;;;;;;;;;;;;;;;;;;5092151;28;20493;-71
2022/07/14 13:17:49;;;;;;;3.75;1.65;;;;;;;;;;5090726;28;19915;-71
2022/07/14 13:20:45;;;;;;;5.57;1.70;;;;;;;;;;5085910;27;20452;-71
2022/07/14 13:23:32;;;;;;;3.00;1.50;;;;;;;;;;5085962;28;20387;-71
2022/07/14 13:26:14;;;;;;;4.65;1.83;;;;;;;;;;5106349;27;20396;-71
2022/07/14 13:28:54;;;;;;;2.28;1.80;;;;;;;;;;5086163;27;20915;-71
2022/07/14 13:31:24;;;;;;;2.42;1.58;;;;;;;;;;5087590;28;20389;-71
2022/07/14 13:34:02;;;;;;;2.65;1.42;;;;;;;;;;5109929;27;20449;-70
2022/07/14 13:36:31;;;;;;;3.83;1.50;;;;;;;;;;5106040;28;20042;-71
2022/07/14 13:39:08;;;;;;;4.63;1.58;;;;;;;;;;5066135;28;20399;-71
2022/07/14 13:41:45;;;;;;;3.58;1.80;;;;;;;;;;5086277;27;20164;-71
2022/07/14 13:44:22;;;;;;;7.15;1.58;;;;;;;;;;5106015;27;20133;-71
2022/07/14 13:46:50;;;;;;;2.85;1.52;;;;;;;;;;5102013;28;20051;-71
2022/07/14 13:49:19;;;;;;;2.03;1.45;;;;;;;;;;5090190;28;20040;-71
2022/07/14 13:54:37;;;;;;;1.48;1.38;;;;;;;;;;5091492;28;20034;-71
2022/07/14 13:57:16;;;;;;;3.33;1.67;;;;;;;;;;5106669;27;20396;-71
2022/07/14 13:59:46;;;;;;;4.47;1.70;;;;;;;;;;5096641;28;20028;-71
2022/07/14 14:02:15;;;;;;;4.25;1.52;;;;;;;;;;5090608;28;20032;-71
2022/07/14 14:04:44;;;;;;;2.58;1.50;;;;;;;;;;5087594;28;20039;-71
2022/07/14 14:07:12;;;;;;;1.98;1.58;;;;;;;;;;5090892;28;20016;-71
2022/07/14 14:09:41;;;;;;;5.15;1.48;;;;;;;;;;5091344;28;20460;-71
2022/07/14 14:12:10;;;;;;;3.70;1.30;;;;;;;;;;5090186;28;20024;-71
2022/07/14 14:14:50;;;;;;;1.40;1.30;;;;;;;;;;5065794;28;20395;-71
2022/07/14 14:17:28;;;;;;;1.98;1.20;;;;;;;;;;5065890;28;20410;-71
2022/07/14 14:20:05;;;;;;;1.65;1.55;;;;;;;;;;5086442;27;20175;-71
2022/07/14 14:22:33;;;;;;;2.67;1.42;;;;;;;;;;5086285;28;20024;-71
2022/07/14 14:25:05;;;;;;;1.98;1.30;;;;;;;;;;5083944;28;20031;-71
2022/07/14 14:27:44;;;;;;;3.58;1.20;;;;;;;;;;5051317;28;20415;-71
2022/07/14 14:30:13;;;;;;;1.42;1.30;;;;;;;;;;5050073;28;20032;-71
2022/07/14 14:32:41;;;;;;;3.05;1.30;;;;;;;;;;5050090;28;20041;-71
2022/07/14 14:35:10;;;;;;;2.35;1.50;;;;;;;;;;5049856;28;20021;-71
2022/07/14 14:37:39;;;;;;;4.57;1.33;;;;;;;;;;5050320;28;20024;-71
2022/07/14 14:40:08;;;;;;;4.85;1.30;;;;;;;;;;5049058;28;20482;-70
2022/07/14 14:42:36;;;;;;;2.03;1.33;;;;;;;;;;5049504;28;20052;-70
2022/07/14 14:45:06;;;;;;;2.97;1.25;;;;;;;;;;5050116;28;20030;-71
2022/07/14 14:47:44;;;;;;;4.32;1.30;;;;;;;;;;5106110;27;20396;-71
2022/07/14 14:50:13;;;;;;;1.80;1.20;;;;;;;;;;5101320;28;20026;-71
2022/07/14 14:52:55;;;;;;;2.70;1.20;;;;;;;;;;5106567;27;20393;-71
2022/07/14 14:55:24;;;;;;;3.45;1.60;;;;;;;;;;5108098;28;20042;-71
2022/07/14 14:57:53;;;;;;;2.03;1.00;;;;;;;;;;5108209;28;20411;-71
2022/07/14 15:00:22;;;;;;;2.65;1.30;;;;;;;;;;5106203;28;20027;-70
2022/07/14 15:02:50;;;;;;;4.88;1.45;;;;;;;;;;5107608;28;20034;-71
2022/07/14 15:05:19;;;;;;;2.30;1.40;;;;;;;;;;5106159;28;20020;-71
2022/07/14 15:07:48;;;;;;;3.25;1.20;;;;;;;;;;5106112;28;20477;-71
2022/07/14 15:10:17;;;;;;;2.92;1.40;;;;;;;;;;5108468;28;20391;-71
2022/07/14 15:12:55;;;;;;;3.33;1.40;;;;;;;;;;5069000;28;20379;-71
2022/07/14 15:15:24;;;;;;;5.95;1.25;;;;;;;;;;5051368;28;20029;-71
2022/07/14 15:17:53;;;;;;;3.40;1.10;;;;;;;;;;5050363;28;20409;-71
2022/07/14 15:20:22;;;;;;;1.23;1.13;;;;;;;;;;5050328;28;20031;-71
2022/07/14 15:22:50;;;;;;;7.10;1.20;;;;;;;;;;5047831;28;20022;-71
2022/07/14 15:25:19;;;;;;;2.60;1.20;;;;;;;;;;5050020;28;20043;-71
2022/07/14 15:27:48;;;;;;;1.40;1.30;;;;;;;;;;5051531;28;20528;-71